sensor_id;sensor_type;location;lat;lon;timestamp;pressure;altitude;pressure_sealevel;temperature;humidity
7026;BME280;3554;42.132;24.786;2023-05-19T00:00:33;100038.56;;;15.14;100.00
7026;BME280;3554;42.132;24.786;2023-05-19T00:03:03;100006.06;;;15.14;100.00
7026;BME280;3554;42.132;24.786;2023-05-19T00:05:30;99979.69;;;15.14;100.00
7026;BME280;3554;42.132;24.786;2023-05-19T00:08:16;99965.34;;;15.19;100.00
7026;BME280;3554;42.132;24.786;2023-05-19T00:10:44;99938.91;;;15.21;100.00
7026;BME280;3554;42.132;24.786;2023-05-19T00:13:11;99930.22;;;15.19;100.00
7026;BME280;3554;42.132;24.786;2023-05-19T00:15:39;99909.53;;;15.11;100.00
7026;BME280;3554;42.132;24.786;2023-05-19T00:18:07;99897.09;;;15.13;100.00
7026;BME280;3554;42.132;24.786;2023-05-19T00:20:34;99875.84;;;15.16;100.00
7026;BME280;3554;42.132;24.786;2023-05-19T00:23:02;99867.00;;;15.17;100.00
7026;BME280;3554;42.132;24.786;2023-05-19T00:25:28;99858.56;;;15.11;100.00
7026;BME280;3554;42.132;24.786;2023-05-19T00:27:55;99853.28;;;15.11;100.00
7026;BME280;3554;42.132;24.786;2023-05-19T00:30:23;99836.78;;;15.07;100.00
7026;BME280;3554;42.132;24.786;2023-05-19T00:32:50;99821.56;;;15.12;100.00
7026;BME280;3554;42.132;24.786;2023-05-19T00:35:19;99806.75;;;15.10;100.00
7026;BME280;3554;42.132;24.786;2023-05-19T00:37:46;99689.47;;;14.34;100.00
7026;BME280;3554;42.132;24.786;2023-05-19T00:40:13;99786.69;;;15.07;100.00
7026;BME280;3554;42.132;24.786;2023-05-19T00:42:40;99781.22;;;15.10;100.00
7026;BME280;3554;42.132;24.786;2023-05-19T00:45:08;99774.97;;;15.13;100.00
7026;BME280;3554;42.132;24.786;2023-05-19T00:47:35;99754.94;;;15.09;100.00
7026;BME280;3554;42.132;24.786;2023-05-19T00:50:01;99739.13;;;15.09;100.00
7026;BME280;3554;42.132;24.786;2023-05-19T00:52:30;99714.03;;;15.01;100.00
7026;BME280;3554;42.132;24.786;2023-05-19T00:54:57;99710.31;;;15.06;100.00
7026;BME280;3554;42.132;24.786;2023-05-19T00:57:24;99685.47;;;15.10;100.00
7026;BME280;3554;42.132;24.786;2023-05-19T00:59:51;99664.53;;;15.07;100.00
7026;BME280;3554;42.132;24.786;2023-05-19T01:02:18;99611.19;;;14.86;100.00
7026;BME280;3554;42.132;24.786;2023-05-19T01:04:46;99643.63;;;15.03;100.00
7026;BME280;3554;42.132;24.786;2023-05-19T01:07:13;99590.25;;;14.83;100.00
7026;BME280;3554;42.132;24.786;2023-05-19T01:09:42;99623.22;;;15.07;100.00
7026;BME280;3554;42.132;24.786;2023-05-19T01:12:09;99606.63;;;15.05;100.00
7026;BME280;3554;42.132;24.786;2023-05-19T01:14:36;99586.41;;;15.06;100.00
7026;BME280;3554;42.132;24.786;2023-05-19T01:17:06;99583.84;;;15.04;100.00
7026;BME280;3554;42.132;24.786;2023-05-19T01:19:49;99571.59;;;15.03;100.00
7026;BME280;3554;42.132;24.786;2023-05-19T01:22:30;99566.06;;;15.08;100.00
7026;BME280;3554;42.132;24.786;2023-05-19T01:25:18;99564.44;;;15.05;100.00
7026;BME280;3554;42.132;24.786;2023-05-19T01:28:23;99553.22;;;15.01;100.00
7026;BME280;3554;42.132;24.786;2023-05-19T01:30:54;99540.81;;;15.03;100.00
7026;BME280;3554;42.132;24.786;2023-05-19T01:33:22;99535.88;;;14.97;100.00
7026;BME280;3554;42.132;24.786;2023-05-19T01:35:50;99528.81;;;14.98;100.00
7026;BME280;3554;42.132;24.786;2023-05-19T01:38:19;99526.28;;;14.96;100.00
7026;BME280;3554;42.132;24.786;2023-05-19T01:40:49;99475.44;;;14.79;100.00
7026;BME280;3554;42.132;24.786;2023-05-19T01:43:18;99512.72;;;15.02;100.00
7026;BME280;3554;42.132;24.786;2023-05-19T01:45:46;99502.13;;;15.04;100.00
7026;BME280;3554;42.132;24.786;2023-05-19T01:48:15;99494.28;;;15.02;100.00
7026;BME280;3554;42.132;24.786;2023-05-19T01:50:42;99490.88;;;15.00;100.00
7026;BME280;3554;42.132;24.786;2023-05-19T01:53:09;99480.25;;;15.02;100.00
7026;BME280;3554;42.132;24.786;2023-05-19T01:55:41;99461.88;;;15.00;100.00
7026;BME280;3554;42.132;24.786;2023-05-19T01:58:14;99475.66;;;15.06;100.00
7026;BME280;3554;42.132;24.786;2023-05-19T02:00:50;99458.22;;;15.03;100.00
7026;BME280;3554;42.132;24.786;2023-05-19T02:03:31;99449.22;;;15.07;100.00
7026;BME280;3554;42.132;24.786;2023-05-19T02:06:11;99450.13;;;15.06;100.00
7026;BME280;3554;42.132;24.786;2023-05-19T02:08:43;99452.72;;;15.08;100.00
7026;BME280;3554;42.132;24.786;2023-05-19T02:11:21;99437.72;;;15.08;100.00
7026;BME280;3554;42.132;24.786;2023-05-19T02:13:55;99439.59;;;15.06;100.00
7026;BME280;3554;42.132;24.786;2023-05-19T02:16:24;99434.06;;;15.11;100.00
7026;BME280;3554;42.132;24.786;2023-05-19T02:18:54;99436.13;;;15.06;100.00
7026;BME280;3554;42.132;24.786;2023-05-19T02:21:21;99431.63;;;15.08;100.00
7026;BME280;3554;42.132;24.786;2023-05-19T02:23:49;99408.22;;;15.01;100.00
7026;BME280;3554;42.132;24.786;2023-05-19T02:26:16;99420.03;;;15.10;100.00
7026;BME280;3554;42.132;24.786;2023-05-19T02:28:43;99412.41;;;15.06;100.00
7026;BME280;3554;42.132;24.786;2023-05-19T02:31:09;99404.38;;;15.07;100.00
7026;BME280;3554;42.132;24.786;2023-05-19T02:33:36;99402.97;;;15.01;100.00
7026;BME280;3554;42.132;24.786;2023-05-19T02:36:05;99389.28;;;14.95;100.00
7026;BME280;3554;42.132;24.786;2023-05-19T02:38:33;99385.72;;;14.96;100.00
7026;BME280;3554;42.132;24.786;2023-05-19T02:41:00;99370.91;;;14.93;100.00
7026;BME280;3554;42.132;24.786;2023-05-19T02:43:27;99376.38;;;14.90;100.00
7026;BME280;3554;42.132;24.786;2023-05-19T02:45:54;99364.91;;;14.91;100.00
7026;BME280;3554;42.132;24.786;2023-05-19T02:48:21;99364.03;;;14.91;100.00
7026;BME280;3554;42.132;24.786;2023-05-19T02:50:48;99364.28;;;14.86;100.00
7026;BME280;3554;42.132;24.786;2023-05-19T02:53:16;99360.56;;;14.90;100.00
7026;BME280;3554;42.132;24.786;2023-05-19T02:55:43;99366.09;;;14.86;100.00
7026;BME280;3554;42.132;24.786;2023-05-19T02:58:10;99360.06;;;14.84;100.00
7026;BME280;3554;42.132;24.786;2023-05-19T03:00:37;99357.44;;;14.84;100.00
7026;BME280;3554;42.132;24.786;2023-05-19T03:03:03;99358.28;;;14.84;100.00
7026;BME280;3554;42.132;24.786;2023-05-19T03:05:30;99354.88;;;14.82;100.00
7026;BME280;3554;42.132;24.786;2023-05-19T03:07:57;99354.94;;;14.81;100.00
7026;BME280;3554;42.132;24.786;2023-05-19T03:10:25;99348.47;;;14.86;100.00
7026;BME280;3554;42.132;24.786;2023-05-19T03:12:52;99347.56;;;14.87;100.00
7026;BME280;3554;42.132;24.786;2023-05-19T03:15:18;99347.66;;;14.86;100.00
7026;BME280;3554;42.132;24.786;2023-05-19T03:17:47;99343.22;;;14.86;100.00
7026;BME280;3554;42.132;24.786;2023-05-19T03:20:15;99347.38;;;14.90;100.00
7026;BME280;3554;42.132;24.786;2023-05-19T03:22:41;99350.00;;;14.90;100.00
7026;BME280;3554;42.132;24.786;2023-05-19T03:25:09;99337.78;;;14.89;100.00
7026;BME280;3554;42.132;24.786;2023-05-19T03:27:37;99336.16;;;14.87;100.00
7026;BME280;3554;42.132;24.786;2023-05-19T03:30:04;99330.22;;;14.83;100.00
7026;BME280;3554;42.132;24.786;2023-05-19T03:32:31;99340.41;;;14.89;100.00
7026;BME280;3554;42.132;24.786;2023-05-19T03:35:01;99344.72;;;14.90;100.00
7026;BME280;3554;42.132;24.786;2023-05-19T03:37:28;99344.53;;;14.93;100.00
7026;BME280;3554;42.132;24.786;2023-05-19T03:39:55;99342.53;;;14.98;100.00
7026;BME280;3554;42.132;24.786;2023-05-19T03:42:22;99352.69;;;15.04;100.00
7026;BME280;3554;42.132;24.786;2023-05-19T03:44:50;99347.41;;;15.04;100.00
7026;BME280;3554;42.132;24.786;2023-05-19T03:47:17;99347.41;;;15.04;100.00
7026;BME280;3554;42.132;24.786;2023-05-19T03:49:44;99341.59;;;15.14;100.00
7026;BME280;3554;42.132;24.786;2023-05-19T03:52:10;99335.31;;;15.16;100.00
7026;BME280;3554;42.132;24.786;2023-05-19T03:54:37;99333.72;;;15.28;100.00
7026;BME280;3554;42.132;24.786;2023-05-19T03:57:04;99324.56;;;15.19;100.00
7026;BME280;3554;42.132;24.786;2023-05-19T03:59:31;99338.16;;;15.27;100.00
7026;BME280;3554;42.132;24.786;2023-05-19T04:02:01;99334.84;;;15.24;100.00
7026;BME280;3554;42.132;24.786;2023-05-19T04:04:27;99340.28;;;15.21;100.00
7026;BME280;3554;42.132;24.786;2023-05-19T04:06:54;99338.06;;;15.29;100.00
7026;BME280;3554;42.132;24.786;2023-05-19T04:09:22;99330.31;;;15.26;100.00
7026;BME280;3554;42.132;24.786;2023-05-19T04:11:49;99336.19;;;15.31;100.00
7026;BME280;3554;42.132;24.786;2023-05-19T04:14:16;99335.41;;;15.29;100.00
7026;BME280;3554;42.132;24.786;2023-05-19T04:16:43;99344.47;;;15.39;100.00
7026;BME280;3554;42.132;24.786;2023-05-19T04:19:12;99335.59;;;15.40;100.00
7026;BME280;3554;42.132;24.786;2023-05-19T04:21:38;99334.25;;;15.48;100.00
7026;BME280;3554;42.132;24.786;2023-05-19T04:24:06;99333.28;;;15.49;100.00
7026;BME280;3554;42.132;24.786;2023-05-19T04:26:32;99340.34;;;15.49;100.00
7026;BME280;3554;42.132;24.786;2023-05-19T04:29:00;99342.81;;;15.52;100.00
7026;BME280;3554;42.132;24.786;2023-05-19T04:31:28;99348.56;;;15.58;100.00
7026;BME280;3554;42.132;24.786;2023-05-19T04:33:55;99338.47;;;15.65;100.00
7026;BME280;3554;42.132;24.786;2023-05-19T04:36:23;99355.56;;;15.73;100.00
7026;BME280;3554;42.132;24.786;2023-05-19T04:38:50;99360.16;;;15.84;100.00
7026;BME280;3554;42.132;24.786;2023-05-19T04:41:19;99367.22;;;15.97;100.00
7026;BME280;3554;42.132;24.786;2023-05-19T04:43:46;99364.78;;;16.49;100.00
7026;BME280;3554;42.132;24.786;2023-05-19T04:46:14;99375.03;;;17.20;100.00
7026;BME280;3554;42.132;24.786;2023-05-19T04:48:41;99396.81;;;17.75;100.00
7026;BME280;3554;42.132;24.786;2023-05-19T04:51:08;99413.13;;;18.19;100.00
7026;BME280;3554;42.132;24.786;2023-05-19T04:53:40;99416.50;;;18.70;100.00
7026;BME280;3554;42.132;24.786;2023-05-19T04:56:08;99422.03;;;18.90;100.00
7026;BME280;3554;42.132;24.786;2023-05-19T04:58:38;99432.75;;;18.65;100.00
7026;BME280;3554;42.132;24.786;2023-05-19T05:01:05;99429.41;;;18.51;100.00
7026;BME280;3554;42.132;24.786;2023-05-19T05:03:33;99433.03;;;18.73;100.00
7026;BME280;3554;42.132;24.786;2023-05-19T05:06:00;99431.97;;;18.99;100.00
7026;BME280;3554;42.132;24.786;2023-05-19T05:08:27;99436.31;;;19.24;100.00
7026;BME280;3554;42.132;24.786;2023-05-19T05:10:56;99443.06;;;19.28;100.00
7026;BME280;3554;42.132;24.786;2023-05-19T05:13:24;99443.75;;;19.19;100.00
7026;BME280;3554;42.132;24.786;2023-05-19T05:15:51;99434.69;;;19.34;100.00
7026;BME280;3554;42.132;24.786;2023-05-19T05:18:19;99441.38;;;19.51;100.00
7026;BME280;3554;42.132;24.786;2023-05-19T05:20:46;99446.16;;;19.46;100.00
7026;BME280;3554;42.132;24.786;2023-05-19T05:23:14;99446.06;;;19.23;100.00
7026;BME280;3554;42.132;24.786;2023-05-19T05:25:41;99440.56;;;19.61;100.00
7026;BME280;3554;42.132;24.786;2023-05-19T05:28:09;99431.13;;;19.57;100.00
7026;BME280;3554;42.132;24.786;2023-05-19T05:30:36;99443.28;;;19.94;100.00
7026;BME280;3554;42.132;24.786;2023-05-19T05:33:03;99441.91;;;19.78;100.00
7026;BME280;3554;42.132;24.786;2023-05-19T05:35:30;99455.94;;;19.80;100.00
7026;BME280;3554;42.132;24.786;2023-05-19T05:37:57;99439.53;;;19.86;100.00
7026;BME280;3554;42.132;24.786;2023-05-19T05:40:24;99452.66;;;19.76;100.00
7026;BME280;3554;42.132;24.786;2023-05-19T05:42:51;99453.75;;;19.74;100.00
7026;BME280;3554;42.132;24.786;2023-05-19T05:45:21;99453.03;;;19.72;100.00
7026;BME280;3554;42.132;24.786;2023-05-19T05:47:48;99455.59;;;19.84;100.00
7026;BME280;3554;42.132;24.786;2023-05-19T05:50:16;99459.47;;;19.91;100.00
7026;BME280;3554;42.132;24.786;2023-05-19T05:52:45;99461.59;;;19.75;100.00
7026;BME280;3554;42.132;24.786;2023-05-19T05:55:13;99467.56;;;19.90;100.00
7026;BME280;3554;42.132;24.786;2023-05-19T05:57:41;99461.94;;;20.16;100.00
7026;BME280;3554;42.132;24.786;2023-05-19T06:00:09;99458.06;;;20.32;100.00
7026;BME280;3554;42.132;24.786;2023-05-19T06:02:41;99469.09;;;20.38;100.00
7026;BME280;3554;42.132;24.786;2023-05-19T06:05:09;99465.16;;;20.09;100.00
7026;BME280;3554;42.132;24.786;2023-05-19T06:07:37;99463.88;;;19.69;100.00
7026;BME280;3554;42.132;24.786;2023-05-19T06:10:05;99462.25;;;19.20;100.00
7026;BME280;3554;42.132;24.786;2023-05-19T06:12:32;99447.31;;;19.07;100.00
7026;BME280;3554;42.132;24.786;2023-05-19T06:14:59;99462.63;;;19.03;100.00
7026;BME280;3554;42.132;24.786;2023-05-19T06:17:26;99464.03;;;18.96;100.00
7026;BME280;3554;42.132;24.786;2023-05-19T06:19:54;99469.69;;;18.92;100.00
7026;BME280;3554;42.132;24.786;2023-05-19T06:22:21;99470.81;;;19.00;100.00
7026;BME280;3554;42.132;24.786;2023-05-19T06:24:47;99463.69;;;19.24;100.00
7026;BME280;3554;42.132;24.786;2023-05-19T06:27:14;99459.56;;;19.79;100.00
7026;BME280;3554;42.132;24.786;2023-05-19T06:29:41;99475.00;;;20.31;100.00
7026;BME280;3554;42.132;24.786;2023-05-19T06:32:08;99475.72;;;20.33;100.00
7026;BME280;3554;42.132;24.786;2023-05-19T06:34:35;99477.88;;;20.50;100.00
7026;BME280;3554;42.132;24.786;2023-05-19T06:37:04;99473.94;;;19.87;100.00
7026;BME280;3554;42.132;24.786;2023-05-19T06:39:30;99446.88;;;19.82;100.00
7026;BME280;3554;42.132;24.786;2023-05-19T06:41:57;99473.50;;;20.15;100.00
7026;BME280;3554;42.132;24.786;2023-05-19T06:44:24;99467.63;;;20.34;100.00
7026;BME280;3554;42.132;24.786;2023-05-19T06:46:51;99479.94;;;20.46;100.00
7026;BME280;3554;42.132;24.786;2023-05-19T06:49:18;99474.63;;;20.35;100.00
7026;BME280;3554;42.132;24.786;2023-05-19T06:51:44;99472.94;;;20.23;100.00
7026;BME280;3554;42.132;24.786;2023-05-19T06:54:13;99468.28;;;20.03;100.00
7026;BME280;3554;42.132;24.786;2023-05-19T06:56:40;99423.34;;;19.89;100.00
7026;BME280;3554;42.132;24.786;2023-05-19T06:59:07;99468.53;;;20.00;100.00
7026;BME280;3554;42.132;24.786;2023-05-19T07:01:33;99464.47;;;20.18;100.00
7026;BME280;3554;42.132;24.786;2023-05-19T07:04:00;99460.34;;;20.47;100.00
7026;BME280;3554;42.132;24.786;2023-05-19T07:06:27;99460.59;;;20.66;100.00
7026;BME280;3554;42.132;24.786;2023-05-19T07:08:54;99463.44;;;20.96;100.00
7026;BME280;3554;42.132;24.786;2023-05-19T07:11:22;99463.38;;;21.18;100.00
7026;BME280;3554;42.132;24.786;2023-05-19T07:13:49;99461.59;;;20.97;100.00
7026;BME280;3554;42.132;24.786;2023-05-19T07:16:15;99459.34;;;20.81;100.00
7026;BME280;3554;42.132;24.786;2023-05-19T07:18:42;99447.22;;;20.88;100.00
7026;BME280;3554;42.132;24.786;2023-05-19T07:21:09;99456.19;;;20.98;100.00
7026;BME280;3554;42.132;24.786;2023-05-19T07:23:36;99454.88;;;21.36;100.00
7026;BME280;3554;42.132;24.786;2023-05-19T07:26:03;99454.88;;;21.56;100.00
7026;BME280;3554;42.132;24.786;2023-05-19T07:28:31;99462.59;;;21.59;100.00
7026;BME280;3554;42.132;24.786;2023-05-19T07:30:58;99469.78;;;21.59;100.00
7026;BME280;3554;42.132;24.786;2023-05-19T07:33:25;99473.91;;;21.52;100.00
7026;BME280;3554;42.132;24.786;2023-05-19T07:35:52;99477.00;;;21.68;100.00
7026;BME280;3554;42.132;24.786;2023-05-19T07:38:19;99470.59;;;21.91;100.00
7026;BME280;3554;42.132;24.786;2023-05-19T07:40:46;99478.75;;;21.99;100.00
7026;BME280;3554;42.132;24.786;2023-05-19T07:43:12;99472.34;;;22.31;100.00
7026;BME280;3554;42.132;24.786;2023-05-19T07:45:41;99476.66;;;22.23;100.00
7026;BME280;3554;42.132;24.786;2023-05-19T07:48:07;99482.09;;;22.42;100.00
7026;BME280;3554;42.132;24.786;2023-05-19T07:50:34;99483.91;;;22.42;100.00
7026;BME280;3554;42.132;24.786;2023-05-19T07:53:01;99496.72;;;22.48;100.00
7026;BME280;3554;42.132;24.786;2023-05-19T07:55:28;99495.69;;;22.09;100.00
7026;BME280;3554;42.132;24.786;2023-05-19T07:57:55;99496.94;;;22.35;100.00
7026;BME280;3554;42.132;24.786;2023-05-19T08:00:22;99499.53;;;22.46;100.00
7026;BME280;3554;42.132;24.786;2023-05-19T08:02:50;99503.53;;;22.61;100.00
7026;BME280;3554;42.132;24.786;2023-05-19T08:05:17;99501.72;;;22.62;100.00
7026;BME280;3554;42.132;24.786;2023-05-19T08:07:43;99499.97;;;22.51;100.00
7026;BME280;3554;42.132;24.786;2023-05-19T08:10:10;99497.63;;;22.58;100.00
7026;BME280;3554;42.132;24.786;2023-05-19T08:12:37;99500.75;;;22.42;100.00
7026;BME280;3554;42.132;24.786;2023-05-19T08:15:04;99505.97;;;22.64;100.00
7026;BME280;3554;42.132;24.786;2023-05-19T08:17:31;99505.31;;;22.81;100.00
7026;BME280;3554;42.132;24.786;2023-05-19T08:19:59;99493.19;;;22.68;100.00
7026;BME280;3554;42.132;24.786;2023-05-19T08:22:28;99503.03;;;22.77;100.00
7026;BME280;3554;42.132;24.786;2023-05-19T08:24:55;99500.84;;;23.01;100.00
7026;BME280;3554;42.132;24.786;2023-05-19T08:27:22;99494.13;;;23.06;100.00
7026;BME280;3554;42.132;24.786;2023-05-19T08:29:49;99500.50;;;23.34;100.00
7026;BME280;3554;42.132;24.786;2023-05-19T08:32:16;99502.06;;;23.37;100.00
7026;BME280;3554;42.132;24.786;2023-05-19T08:34:43;99494.75;;;23.29;100.00
7026;BME280;3554;42.132;24.786;2023-05-19T08:37:11;99492.63;;;23.32;100.00
7026;BME280;3554;42.132;24.786;2023-05-19T08:39:37;99506.28;;;23.29;100.00
7026;BME280;3554;42.132;24.786;2023-05-19T08:42:05;99474.19;;;23.10;100.00
7026;BME280;3554;42.132;24.786;2023-05-19T08:44:34;99495.69;;;23.18;100.00
7026;BME280;3554;42.132;24.786;2023-05-19T08:47:03;99508.19;;;23.08;100.00
7026;BME280;3554;42.132;24.786;2023-05-19T08:49:34;99505.94;;;23.23;100.00
7026;BME280;3554;42.132;24.786;2023-05-19T08:52:10;99494.59;;;23.30;100.00
7026;BME280;3554;42.132;24.786;2023-05-19T08:54:45;99495.59;;;23.29;100.00
7026;BME280;3554;42.132;24.786;2023-05-19T08:57:15;99490.38;;;23.38;100.00
7026;BME280;3554;42.132;24.786;2023-05-19T08:59:42;99495.06;;;23.55;100.00
7026;BME280;3554;42.132;24.786;2023-05-19T09:02:11;99495.19;;;23.53;100.00
7026;BME280;3554;42.132;24.786;2023-05-19T09:04:39;99491.66;;;23.62;100.00
7026;BME280;3554;42.132;24.786;2023-05-19T09:07:10;99487.44;;;23.88;100.00
7026;BME280;3554;42.132;24.786;2023-05-19T09:09:38;99496.28;;;24.08;100.00
7026;BME280;3554;42.132;24.786;2023-05-19T09:12:09;99496.56;;;24.05;100.00
7026;BME280;3554;42.132;24.786;2023-05-19T09:14:37;99488.38;;;24.16;100.00
7026;BME280;3554;42.132;24.786;2023-05-19T09:17:04;99486.81;;;24.23;100.00
7026;BME280;3554;42.132;24.786;2023-05-19T09:19:31;99498.22;;;24.25;100.00
7026;BME280;3554;42.132;24.786;2023-05-19T09:21:57;99486.31;;;24.10;100.00
7026;BME280;3554;42.132;24.786;2023-05-19T09:24:26;99494.59;;;24.07;100.00
7026;BME280;3554;42.132;24.786;2023-05-19T09:26:54;99481.75;;;24.29;100.00
7026;BME280;3554;42.132;24.786;2023-05-19T09:29:24;99491.13;;;24.43;100.00
7026;BME280;3554;42.132;24.786;2023-05-19T09:31:52;99498.56;;;24.49;100.00
7026;BME280;3554;42.132;24.786;2023-05-19T09:34:20;99492.59;;;24.55;100.00
7026;BME280;3554;42.132;24.786;2023-05-19T09:36:49;99484.41;;;24.66;100.00
7026;BME280;3554;42.132;24.786;2023-05-19T09:39:18;99492.50;;;24.47;100.00
7026;BME280;3554;42.132;24.786;2023-05-19T09:41:46;99489.75;;;24.76;100.00
7026;BME280;3554;42.132;24.786;2023-05-19T09:44:20;99494.06;;;24.86;100.00
7026;BME280;3554;42.132;24.786;2023-05-19T09:46:51;99494.09;;;24.77;100.00
7026;BME280;3554;42.132;24.786;2023-05-19T09:49:20;99494.44;;;24.91;100.00
7026;BME280;3554;42.132;24.786;2023-05-19T09:51:52;99464.53;;;24.96;100.00
7026;BME280;3554;42.132;24.786;2023-05-19T09:54:20;99493.63;;;25.08;100.00
7026;BME280;3554;42.132;24.786;2023-05-19T09:56:51;99485.09;;;24.68;100.00
7026;BME280;3554;42.132;24.786;2023-05-19T09:59:23;99485.28;;;24.11;100.00
7026;BME280;3554;42.132;24.786;2023-05-19T10:01:53;99495.03;;;23.74;100.00
7026;BME280;3554;42.132;24.786;2023-05-19T10:04:22;99490.13;;;23.41;100.00
7026;BME280;3554;42.132;24.786;2023-05-19T10:06:49;99479.00;;;23.83;100.00
7026;BME280;3554;42.132;24.786;2023-05-19T10:09:21;99482.81;;;23.52;100.00
7026;BME280;3554;42.132;24.786;2023-05-19T10:11:50;99434.09;;;22.52;100.00
7026;BME280;3554;42.132;24.786;2023-05-19T10:14:18;99482.38;;;22.69;100.00
7026;BME280;3554;42.132;24.786;2023-05-19T10:16:48;99478.66;;;23.00;100.00
7026;BME280;3554;42.132;24.786;2023-05-19T10:19:19;99468.00;;;23.10;100.00
7026;BME280;3554;42.132;24.786;2023-05-19T10:21:47;99471.25;;;23.32;100.00
7026;BME280;3554;42.132;24.786;2023-05-19T10:24:14;99474.09;;;23.50;100.00
7026;BME280;3554;42.132;24.786;2023-05-19T10:26:43;99471.28;;;23.71;100.00
7026;BME280;3554;42.132;24.786;2023-05-19T10:29:11;99411.16;;;23.75;100.00
7026;BME280;3554;42.132;24.786;2023-05-19T10:31:40;99453.25;;;24.38;100.00
7026;BME280;3554;42.132;24.786;2023-05-19T10:34:26;99465.19;;;24.44;100.00
7026;BME280;3554;42.132;24.786;2023-05-19T10:37:07;99463.50;;;24.06;100.00
7026;BME280;3554;42.132;24.786;2023-05-19T10:39:40;99473.41;;;24.32;100.00
7026;BME280;3554;42.132;24.786;2023-05-19T10:42:12;99458.16;;;24.42;100.00
7026;BME280;3554;42.132;24.786;2023-05-19T10:47:28;99461.09;;;25.03;100.00
7026;BME280;3554;42.132;24.786;2023-05-19T10:49:59;99466.94;;;25.16;100.00
7026;BME280;3554;42.132;24.786;2023-05-19T10:52:25;99466.25;;;25.67;100.00
7026;BME280;3554;42.132;24.786;2023-05-19T10:54:54;99415.78;;;25.10;94.68
7026;BME280;3554;42.132;24.786;2023-05-19T10:57:25;99482.31;;;25.14;92.26
7026;BME280;3554;42.132;24.786;2023-05-19T10:59:54;99473.38;;;24.69;95.03
7026;BME280;3554;42.132;24.786;2023-05-19T11:02:45;99449.34;;;24.23;98.94
7026;BME280;3554;42.132;24.786;2023-05-19T11:05:14;99473.91;;;23.80;99.77
7026;BME280;3554;42.132;24.786;2023-05-19T11:07:43;99476.84;;;23.10;100.00
7026;BME280;3554;42.132;24.786;2023-05-19T11:10:22;99482.44;;;22.98;100.00
7026;BME280;3554;42.132;24.786;2023-05-19T11:12:49;99468.34;;;22.86;100.00
7026;BME280;3554;42.132;24.786;2023-05-19T11:15:16;99469.66;;;23.11;100.00
7026;BME280;3554;42.132;24.786;2023-05-19T11:17:47;99469.22;;;22.87;100.00
7026;BME280;3554;42.132;24.786;2023-05-19T11:20:21;99475.22;;;22.79;100.00
7026;BME280;3554;42.132;24.786;2023-05-19T11:23:03;99430.38;;;22.33;100.00
7026;BME280;3554;42.132;24.786;2023-05-19T11:25:40;99452.59;;;22.44;100.00
7026;BME280;3554;42.132;24.786;2023-05-19T11:28:07;99453.00;;;22.69;100.00
7026;BME280;3554;42.132;24.786;2023-05-19T11:30:36;99467.91;;;22.72;100.00
7026;BME280;3554;42.132;24.786;2023-05-19T11:33:03;99473.22;;;22.42;100.00
7026;BME280;3554;42.132;24.786;2023-05-19T11:35:34;99457.72;;;22.26;100.00
7026;BME280;3554;42.132;24.786;2023-05-19T11:38:01;99453.63;;;22.22;100.00
7026;BME280;3554;42.132;24.786;2023-05-19T11:40:28;99443.94;;;22.51;100.00
7026;BME280;3554;42.132;24.786;2023-05-19T11:42:55;99450.09;;;22.82;100.00
7026;BME280;3554;42.132;24.786;2023-05-19T11:45:25;99447.50;;;23.29;100.00
7026;BME280;3554;42.132;24.786;2023-05-19T11:47:53;99454.81;;;23.56;100.00
7026;BME280;3554;42.132;24.786;2023-05-19T11:50:21;99462.09;;;23.92;100.00
7026;BME280;3554;42.132;24.786;2023-05-19T11:52:49;99453.34;;;24.00;100.00
7026;BME280;3554;42.132;24.786;2023-05-19T11:55:16;99450.81;;;24.08;100.00
7026;BME280;3554;42.132;24.786;2023-05-19T11:57:50;99450.81;;;24.08;100.00
7026;BME280;3554;42.132;24.786;2023-05-19T12:00:21;99442.66;;;24.00;100.00
7026;BME280;3554;42.132;24.786;2023-05-19T12:02:47;99450.56;;;24.38;100.00
7026;BME280;3554;42.132;24.786;2023-05-19T12:05:17;99452.56;;;24.63;99.76
7026;BME280;3554;42.132;24.786;2023-05-19T12:07:45;99446.34;;;24.72;98.69
7026;BME280;3554;42.132;24.786;2023-05-19T12:10:15;99443.91;;;24.79;98.68
7026;BME280;3554;42.132;24.786;2023-05-19T12:12:44;99434.59;;;24.83;100.00
7026;BME280;3554;42.132;24.786;2023-05-19T12:15:11;99435.16;;;25.04;100.00
7026;BME280;3554;42.132;24.786;2023-05-19T12:17:38;99442.88;;;25.07;99.06
7026;BME280;3554;42.132;24.786;2023-05-19T12:20:06;99445.66;;;24.97;96.10
7026;BME280;3554;42.132;24.786;2023-05-19T12:22:33;99443.19;;;25.21;95.71
7026;BME280;3554;42.132;24.786;2023-05-19T12:25:01;99439.97;;;25.35;91.10
7026;BME280;3554;42.132;24.786;2023-05-19T12:27:34;99438.16;;;25.54;95.21
7026;BME280;3554;42.132;24.786;2023-05-19T12:30:02;99415.47;;;25.30;95.95
7026;BME280;3554;42.132;24.786;2023-05-19T12:32:29;99440.84;;;25.36;97.37
7026;BME280;3554;42.132;24.786;2023-05-19T12:35:01;99422.00;;;25.46;98.40
7026;BME280;3554;42.132;24.786;2023-05-19T12:37:28;99425.50;;;25.64;94.35
7026;BME280;3554;42.132;24.786;2023-05-19T12:39:55;99429.88;;;25.65;91.75
7026;BME280;3554;42.132;24.786;2023-05-19T12:42:24;99430.13;;;25.18;92.42
7026;BME280;3554;42.132;24.786;2023-05-19T12:44:57;99427.19;;;25.29;89.33
7026;BME280;3554;42.132;24.786;2023-05-19T12:47:29;99409.53;;;25.54;92.74
7026;BME280;3554;42.132;24.786;2023-05-19T12:50:00;99392.59;;;25.54;96.05
7026;BME280;3554;42.132;24.786;2023-05-19T12:52:28;99404.00;;;25.81;100.00
7026;BME280;3554;42.132;24.786;2023-05-19T12:54:57;99409.50;;;25.72;87.32
7026;BME280;3554;42.132;24.786;2023-05-19T12:57:25;99402.28;;;25.72;83.99
7026;BME280;3554;42.132;24.786;2023-05-19T12:59:52;99395.38;;;25.70;90.76
7026;BME280;3554;42.132;24.786;2023-05-19T13:02:20;99359.50;;;25.71;95.78
7026;BME280;3554;42.132;24.786;2023-05-19T13:04:47;99402.97;;;26.00;89.33
7026;BME280;3554;42.132;24.786;2023-05-19T13:07:13;99408.59;;;25.89;88.21
7026;BME280;3554;42.132;24.786;2023-05-19T13:09:40;99411.41;;;26.05;86.20